RYR6NR EKCH-EIDW
Flight info
| Callsign | RYR6NR |
|---|---|
| Flight time | 1h 45m |
| Altitude | 36000 |
| Route | ODDON DCT LUTIR DCT RENEQ DCT ERDOW DCT PENIL UL28 LELDO M145 BAGSO BAGSO3R |
| Aircraft | B738/M-SDE2E3FGHIRWXY/LB1 |
Departure
| Time | 2026-05-04 19:03 |
|---|---|
| Airport | Copenhagen Kastrup Airport (EKCH) |
Arrival
| Time | 2026-05-04 20:48 |
|---|---|
| Airport | Dublin Airport (EIDW) |
| Time | Latitude | Longitude | Altitude | Speed | Heading |
|---|---|---|---|---|---|
| 2026-05-04 18:20 | 55.62510 | 12.65467 | 23 ft | 0 kts | 23° |
| 2026-05-04 18:50 | 55.62492 | 12.65454 | 25 ft | 4 kts | 17° |
| 2026-05-04 18:50 | 55.62466 | 12.65444 | 24 ft | 4 kts | 358° |
| 2026-05-04 18:50 | 55.62445 | 12.65455 | 28 ft | 4 kts | 294° |
| 2026-05-04 18:51 | 55.62443 | 12.65466 | 28 ft | 0 kts | 269° |
| 2026-05-04 18:54 | 55.62443 | 12.65462 | 23 ft | 2 kts | 269° |
| 2026-05-04 18:55 | 55.62442 | 12.65390 | 23 ft | 9 kts | 268° |
| 2026-05-04 18:55 | 55.62397 | 12.65201 | 23 ft | 8 kts | 183° |
| 2026-05-04 18:55 | 55.62340 | 12.65204 | 23 ft | 8 kts | 178° |
| 2026-05-04 18:56 | 55.62290 | 12.65174 | 23 ft | 8 kts | 228° |
| 2026-05-04 18:56 | 55.62279 | 12.65073 | 23 ft | 10 kts | 293° |
| 2026-05-04 18:56 | 55.62326 | 12.64945 | 24 ft | 14 kts | 303° |
| 2026-05-04 18:56 | 55.62356 | 12.64831 | 23 ft | 8 kts | 266° |
| 2026-05-04 18:57 | 55.62335 | 12.64740 | 24 ft | 8 kts | 246° |
| 2026-05-04 18:57 | 55.62313 | 12.64653 | 23 ft | 8 kts | 245° |
| 2026-05-04 18:57 | 55.62294 | 12.64579 | 24 ft | 4 kts | 247° |
| 2026-05-04 18:57 | 55.62293 | 12.64574 | 24 ft | 0 kts | 247° |
| 2026-05-04 18:58 | 55.62290 | 12.64559 | 22 ft | 4 kts | 247° |
| 2026-05-04 18:58 | 55.62268 | 12.64470 | 24 ft | 12 kts | 246° |
| 2026-05-04 18:58 | 55.62198 | 12.64343 | 21 ft | 17 kts | 206° |
| 2026-05-04 18:58 | 55.62089 | 12.64251 | 23 ft | 19 kts | 205° |
| 2026-05-04 18:59 | 55.61959 | 12.64142 | 24 ft | 21 kts | 205° |
| 2026-05-04 18:59 | 55.61869 | 12.64072 | 23 ft | 8 kts | 193° |
| 2026-05-04 18:59 | 55.61820 | 12.64073 | 23 ft | 0 kts | 176° |
| 2026-05-04 19:00 | 55.61818 | 12.64073 | 23 ft | 1 kts | 176° |
| 2026-05-04 19:00 | 55.61794 | 12.64076 | 25 ft | 6 kts | 176° |
| 2026-05-04 19:00 | 55.61758 | 12.64080 | 23 ft | 2 kts | 176° |
| 2026-05-04 19:01 | 55.61753 | 12.64081 | 27 ft | 0 kts | 176° |
| 2026-05-04 19:01 | 55.61750 | 12.64081 | 27 ft | 2 kts | 176° |
| 2026-05-04 19:01 | 55.61708 | 12.64087 | 24 ft | 10 kts | 176° |
| 2026-05-04 19:01 | 55.61634 | 12.64076 | 26 ft | 11 kts | 206° |
| 2026-05-04 19:02 | 55.61605 | 12.64039 | 29 ft | 0 kts | 221° |
| 2026-05-04 19:02 | 55.61605 | 12.64038 | 29 ft | 0 kts | 221° |
| 2026-05-04 19:02 | 55.61590 | 12.64015 | 27 ft | 9 kts | 221° |
| 2026-05-04 19:02 | 55.61366 | 12.63668 | 27 ft | 78 kts | 221° |
| 2026-05-04 19:03 | 55.60792 | 12.62778 | 26 ft | 139 kts | 221° |
| 2026-05-04 19:03 | 55.59948 | 12.61472 | 224 ft | 171 kts | 224° |
| 2026-05-04 19:03 | 55.59084 | 12.60120 | 1084 ft | 167 kts | 225° |
| 2026-05-04 19:03 | 55.58214 | 12.58771 | 1858 ft | 168 kts | 225° |
| 2026-05-04 19:04 | 55.57300 | 12.57362 | 2401 ft | 183 kts | 224° |
| 2026-05-04 19:04 | 55.56348 | 12.55727 | 2859 ft | 199 kts | 240° |
| 2026-05-04 19:04 | 55.56072 | 12.53334 | 3236 ft | 210 kts | 282° |
| 2026-05-04 19:04 | 55.56437 | 12.50694 | 3562 ft | 233 kts | 281° |
| 2026-05-04 19:05 | 55.56714 | 12.47757 | 4033 ft | 248 kts | 278° |
| 2026-05-04 19:05 | 55.56960 | 12.44714 | 4817 ft | 251 kts | 277° |
| 2026-05-04 19:05 | 55.57193 | 12.41655 | 5687 ft | 251 kts | 277° |
| 2026-05-04 19:05 | 55.57416 | 12.38628 | 6507 ft | 252 kts | 277° |
| 2026-05-04 19:06 | 55.57640 | 12.35539 | 7263 ft | 255 kts | 277° |
| 2026-05-04 19:06 | 55.57866 | 12.32411 | 7991 ft | 258 kts | 277° |
| 2026-05-04 19:06 | 55.58054 | 12.29242 | 8769 ft | 260 kts | 274° |
| 2026-05-04 19:06 | 55.58165 | 12.26041 | 9561 ft | 262 kts | 272° |
| 2026-05-04 19:07 | 55.58259 | 12.22815 | 10249 ft | 266 kts | 272° |
| 2026-05-04 19:07 | 55.58356 | 12.19408 | 10441 ft | 289 kts | 272° |
| 2026-05-04 19:07 | 55.58462 | 12.15739 | 10646 ft | 310 kts | 272° |
| 2026-05-04 19:07 | 55.58575 | 12.11871 | 11100 ft | 320 kts | 272° |
| 2026-05-04 19:08 | 55.58693 | 12.07920 | 11785 ft | 323 kts | 272° |
| 2026-05-04 19:08 | 55.58812 | 12.03947 | 12543 ft | 325 kts | 272° |
| 2026-05-04 19:08 | 55.58931 | 11.99948 | 13285 ft | 327 kts | 272° |
| 2026-05-04 19:08 | 55.59050 | 11.95908 | 13997 ft | 331 kts | 272° |
| 2026-05-04 19:09 | 55.59171 | 11.91822 | 14667 ft | 334 kts | 272° |
| 2026-05-04 19:09 | 55.59291 | 11.87706 | 15364 ft | 337 kts | 272° |
| 2026-05-04 19:09 | 55.59410 | 11.83547 | 16058 ft | 340 kts | 272° |
| 2026-05-04 19:09 | 55.59530 | 11.79354 | 16750 ft | 343 kts | 272° |
| 2026-05-04 19:10 | 55.59649 | 11.75104 | 17369 ft | 349 kts | 272° |
| 2026-05-04 19:10 | 55.59769 | 11.70797 | 18033 ft | 352 kts | 272° |
| 2026-05-04 19:10 | 55.59888 | 11.66459 | 18651 ft | 355 kts | 272° |
| 2026-05-04 19:10 | 55.60007 | 11.62080 | 19230 ft | 358 kts | 272° |
| 2026-05-04 19:11 | 55.60125 | 11.57665 | 19793 ft | 361 kts | 272° |
| 2026-05-04 19:11 | 55.60243 | 11.53208 | 20351 ft | 365 kts | 272° |
| 2026-05-04 19:11 | 55.60361 | 11.48715 | 20884 ft | 367 kts | 272° |
| 2026-05-04 19:11 | 55.60477 | 11.44189 | 21329 ft | 370 kts | 272° |
| 2026-05-04 19:12 | 55.60553 | 11.41172 | 21627 ft | 373 kts | 272° |
| 2026-05-04 19:12 | 55.60508 | 11.31950 | 22537 ft | 378 kts | 266° |
| 2026-05-04 19:12 | 55.60334 | 11.27301 | 22993 ft | 380 kts | 266° |
| 2026-05-04 19:13 | 55.60146 | 11.22620 | 23428 ft | 383 kts | 266° |
| 2026-05-04 19:13 | 55.59963 | 11.17901 | 23816 ft | 385 kts | 266° |
| 2026-05-04 19:13 | 55.59789 | 11.13161 | 24193 ft | 387 kts | 266° |
| 2026-05-04 19:13 | 55.59621 | 11.08396 | 24547 ft | 390 kts | 266° |
| 2026-05-04 19:14 | 55.59456 | 11.03599 | 24889 ft | 392 kts | 266° |
| 2026-05-04 19:14 | 55.59291 | 10.98769 | 25224 ft | 395 kts | 266° |
| 2026-05-04 19:14 | 55.59124 | 10.93907 | 25561 ft | 397 kts | 266° |
| 2026-05-04 19:14 | 55.58954 | 10.89023 | 25891 ft | 399 kts | 266° |
| 2026-05-04 19:15 | 55.58781 | 10.84111 | 26221 ft | 401 kts | 266° |
| 2026-05-04 19:15 | 55.58607 | 10.79182 | 26540 ft | 403 kts | 266° |
| 2026-05-04 19:15 | 55.58370 | 10.72597 | 26957 ft | 406 kts | 266° |
| 2026-05-04 19:15 | 55.58246 | 10.69227 | 27154 ft | 408 kts | 266° |
| 2026-05-04 19:16 | 55.57919 | 10.64241 | 27431 ft | 410 kts | 256° |
| 2026-05-04 19:16 | 55.56930 | 10.59497 | 27730 ft | 412 kts | 248° |
| 2026-05-04 19:16 | 55.55848 | 10.54799 | 28038 ft | 414 kts | 249° |
| 2026-05-04 19:16 | 55.54774 | 10.50070 | 28306 ft | 416 kts | 249° |
| 2026-05-04 19:17 | 55.53705 | 10.45312 | 28642 ft | 417 kts | 249° |
| 2026-05-04 19:17 | 55.52640 | 10.40542 | 28895 ft | 419 kts | 249° |
| 2026-05-04 19:17 | 55.51570 | 10.35734 | 29096 ft | 423 kts | 249° |
| 2026-05-04 19:17 | 55.50492 | 10.30893 | 29358 ft | 424 kts | 249° |
| 2026-05-04 19:18 | 55.49413 | 10.26049 | 29729 ft | 424 kts | 249° |
| 2026-05-04 19:18 | 55.48333 | 10.21212 | 30154 ft | 423 kts | 249° |
| 2026-05-04 19:18 | 55.47261 | 10.16422 | 30564 ft | 422 kts | 249° |
| 2026-05-04 19:18 | 55.46177 | 10.11595 | 30962 ft | 421 kts | 249° |
| 2026-05-04 19:19 | 55.45100 | 10.06807 | 31288 ft | 421 kts | 249° |
| 2026-05-04 19:19 | 55.44019 | 10.02010 | 31625 ft | 421 kts | 249° |
| 2026-05-04 19:19 | 55.42934 | 9.97210 | 31921 ft | 423 kts | 249° |
| 2026-05-04 19:19 | 55.41847 | 9.92408 | 32278 ft | 422 kts | 249° |
| 2026-05-04 19:20 | 55.40761 | 9.87626 | 32671 ft | 420 kts | 249° |
| 2026-05-04 19:20 | 55.39690 | 9.82923 | 33039 ft | 419 kts | 249° |
| 2026-05-04 19:20 | 55.38603 | 9.78157 | 33347 ft | 419 kts | 249° |
| 2026-05-04 19:20 | 55.37517 | 9.73403 | 33670 ft | 419 kts | 249° |
| 2026-05-04 19:21 | 55.36426 | 9.68641 | 33975 ft | 419 kts | 249° |
| 2026-05-04 19:21 | 55.35335 | 9.63889 | 34230 ft | 419 kts | 249° |
| 2026-05-04 19:21 | 55.34245 | 9.59151 | 34530 ft | 418 kts | 249° |
| 2026-05-04 19:21 | 55.33153 | 9.54418 | 34826 ft | 417 kts | 249° |
| 2026-05-04 19:22 | 55.32064 | 9.49709 | 35126 ft | 416 kts | 249° |
| 2026-05-04 19:22 | 55.30974 | 9.45000 | 35386 ft | 416 kts | 249° |
| 2026-05-04 19:22 | 55.29883 | 9.40304 | 35649 ft | 416 kts | 249° |
| 2026-05-04 19:22 | 55.28789 | 9.35600 | 35835 ft | 417 kts | 249° |
| 2026-05-04 19:23 | 55.27692 | 9.30893 | 35999 ft | 418 kts | 249° |
| 2026-05-04 19:23 | 55.25469 | 9.21391 | 35991 ft | 421 kts | 249° |
| 2026-05-04 19:24 | 55.23255 | 9.11973 | 35983 ft | 414 kts | 248° |
| 2026-05-04 19:24 | 55.21058 | 9.02665 | 35998 ft | 413 kts | 248° |
| 2026-05-04 19:25 | 55.18858 | 8.93381 | 35980 ft | 413 kts | 248° |
| 2026-05-04 19:25 | 55.16654 | 8.84124 | 35991 ft | 412 kts | 248° |
| 2026-05-04 19:26 | 55.14442 | 8.74868 | 35994 ft | 413 kts | 248° |
| 2026-05-04 19:26 | 55.12219 | 8.65609 | 36008 ft | 414 kts | 248° |
| 2026-05-04 19:27 | 55.09983 | 8.56332 | 36012 ft | 415 kts | 248° |
| 2026-05-04 19:27 | 55.07733 | 8.47030 | 36010 ft | 417 kts | 248° |
| 2026-05-04 19:28 | 55.05596 | 8.37626 | 36019 ft | 418 kts | 252° |
| 2026-05-04 19:28 | 55.03854 | 8.27953 | 36025 ft | 419 kts | 253° |
| 2026-05-04 19:29 | 55.02151 | 8.18242 | 36020 ft | 420 kts | 253° |
| 2026-05-04 19:29 | 55.00411 | 8.08525 | 36024 ft | 420 kts | 253° |
| 2026-05-04 19:30 | 54.98643 | 7.98829 | 36018 ft | 420 kts | 252° |
| 2026-05-04 19:30 | 54.96862 | 7.89151 | 36022 ft | 419 kts | 252° |
| 2026-05-04 19:31 | 54.95076 | 7.79506 | 36029 ft | 418 kts | 252° |
| 2026-05-04 19:31 | 54.93286 | 7.69889 | 36029 ft | 418 kts | 252° |
| 2026-05-04 19:32 | 54.91492 | 7.60295 | 36023 ft | 417 kts | 252° |
| 2026-05-04 19:32 | 54.89693 | 7.50726 | 36032 ft | 416 kts | 252° |
| 2026-05-04 19:33 | 54.87899 | 7.41229 | 36032 ft | 416 kts | 252° |
| 2026-05-04 19:33 | 54.86086 | 7.31676 | 36030 ft | 417 kts | 252° |
| 2026-05-04 19:34 | 54.84263 | 7.22121 | 36035 ft | 417 kts | 252° |
| 2026-05-04 19:34 | 54.82430 | 7.12564 | 36037 ft | 418 kts | 252° |
| 2026-05-04 19:35 | 54.80587 | 7.03002 | 36034 ft | 419 kts | 251° |
| 2026-05-04 19:35 | 54.78734 | 6.93436 | 36036 ft | 419 kts | 251° |
| 2026-05-04 19:36 | 54.76870 | 6.83861 | 36034 ft | 420 kts | 251° |
| 2026-05-04 19:36 | 54.74997 | 6.74287 | 36039 ft | 420 kts | 251° |
| 2026-05-04 19:37 | 54.73112 | 6.64697 | 36047 ft | 423 kts | 251° |
| 2026-05-04 19:37 | 54.71198 | 6.55011 | 36042 ft | 427 kts | 251° |
| 2026-05-04 19:38 | 54.69261 | 6.45256 | 36241 ft | 430 kts | 251° |
| 2026-05-04 19:38 | 54.68288 | 6.40371 | 36493 ft | 430 kts | 251° |
| 2026-05-04 19:38 | 54.67316 | 6.35507 | 36819 ft | 427 kts | 251° |
| 2026-05-04 19:38 | 54.66348 | 6.30677 | 37161 ft | 424 kts | 251° |
| 2026-05-04 19:39 | 54.65385 | 6.25878 | 37473 ft | 422 kts | 251° |
| 2026-05-04 19:39 | 54.64424 | 6.21103 | 37710 ft | 421 kts | 251° |
| 2026-05-04 19:39 | 54.63460 | 6.16326 | 37914 ft | 421 kts | 251° |
| 2026-05-04 19:39 | 54.62495 | 6.11557 | 38053 ft | 422 kts | 251° |
| 2026-05-04 19:40 | 54.61524 | 6.06768 | 38033 ft | 424 kts | 251° |
| 2026-05-04 19:40 | 54.59574 | 5.97185 | 38030 ft | 421 kts | 251° |
| 2026-05-04 19:41 | 54.57635 | 5.87703 | 38028 ft | 418 kts | 251° |
| 2026-05-04 19:41 | 54.55701 | 5.78288 | 38046 ft | 416 kts | 250° |
| 2026-05-04 19:42 | 54.53766 | 5.68913 | 38051 ft | 415 kts | 250° |
| 2026-05-04 19:42 | 54.51824 | 5.59549 | 38051 ft | 416 kts | 250° |
| 2026-05-04 19:43 | 54.49878 | 5.50209 | 38055 ft | 418 kts | 250° |
| 2026-05-04 19:43 | 54.47896 | 5.40739 | 38056 ft | 420 kts | 250° |
| 2026-05-04 19:44 | 54.45918 | 5.31334 | 38048 ft | 422 kts | 250° |
| 2026-05-04 19:44 | 54.43894 | 5.21755 | 38056 ft | 425 kts | 250° |
| 2026-05-04 19:45 | 54.41881 | 5.12269 | 38049 ft | 427 kts | 250° |
| 2026-05-04 19:45 | 54.39838 | 5.02689 | 38047 ft | 428 kts | 250° |
| 2026-05-04 19:46 | 54.37783 | 4.93101 | 38049 ft | 428 kts | 250° |
| 2026-05-04 19:46 | 54.35719 | 4.83515 | 38042 ft | 428 kts | 250° |
| 2026-05-04 19:47 | 54.33637 | 4.73886 | 38046 ft | 427 kts | 250° |
| 2026-05-04 19:47 | 54.31565 | 4.64352 | 38051 ft | 426 kts | 250° |
| 2026-05-04 19:48 | 54.29493 | 4.54861 | 38048 ft | 425 kts | 249° |
| 2026-05-04 19:48 | 54.27436 | 4.45474 | 38052 ft | 424 kts | 249° |
| 2026-05-04 19:49 | 54.25363 | 4.36057 | 38047 ft | 423 kts | 249° |
| 2026-05-04 19:49 | 54.23658 | 4.26476 | 38035 ft | 421 kts | 262° |
| 2026-05-04 19:50 | 54.22906 | 4.16556 | 38060 ft | 421 kts | 262° |
| 2026-05-04 19:50 | 54.22164 | 4.06625 | 38051 ft | 421 kts | 262° |
| 2026-05-04 19:51 | 54.21392 | 3.96691 | 38062 ft | 422 kts | 262° |
| 2026-05-04 19:51 | 54.20594 | 3.86736 | 38058 ft | 423 kts | 262° |
| 2026-05-04 19:52 | 54.19781 | 3.76760 | 38058 ft | 425 kts | 262° |
| 2026-05-04 19:52 | 54.18958 | 3.66759 | 38049 ft | 426 kts | 261° |
| 2026-05-04 19:53 | 54.18124 | 3.56733 | 38068 ft | 427 kts | 261° |
| 2026-05-04 19:53 | 54.17280 | 3.46685 | 38059 ft | 428 kts | 261° |
| 2026-05-04 19:54 | 54.16425 | 3.36621 | 38067 ft | 429 kts | 261° |
| 2026-05-04 19:54 | 54.15566 | 3.26604 | 38062 ft | 430 kts | 261° |
| 2026-05-04 19:55 | 54.14687 | 3.16450 | 38064 ft | 430 kts | 261° |
| 2026-05-04 19:55 | 54.13810 | 3.06424 | 38055 ft | 430 kts | 261° |
| 2026-05-04 19:56 | 54.12918 | 2.96332 | 38056 ft | 430 kts | 261° |
| 2026-05-04 19:56 | 54.12019 | 2.86256 | 38061 ft | 430 kts | 261° |
| 2026-05-04 19:57 | 54.11111 | 2.76185 | 38067 ft | 430 kts | 261° |
| 2026-05-04 19:57 | 54.10196 | 2.66125 | 38061 ft | 430 kts | 261° |
| 2026-05-04 19:58 | 54.09272 | 2.56070 | 38052 ft | 430 kts | 261° |
| 2026-05-04 19:58 | 54.08498 | 2.47719 | 38061 ft | 429 kts | 261° |
| 2026-05-04 19:59 | 54.07559 | 2.37672 | 38056 ft | 429 kts | 260° |
| 2026-05-04 19:59 | 54.06612 | 2.27635 | 38056 ft | 430 kts | 260° |
| 2026-05-04 20:00 | 54.05656 | 2.17591 | 38065 ft | 430 kts | 260° |
| 2026-05-04 20:00 | 54.04692 | 2.07563 | 38065 ft | 430 kts | 260° |
| 2026-05-04 20:01 | 54.03719 | 1.97524 | 38062 ft | 430 kts | 260° |
| 2026-05-04 20:01 | 54.02736 | 1.87482 | 38060 ft | 431 kts | 260° |
| 2026-05-04 20:02 | 54.01744 | 1.77433 | 38060 ft | 431 kts | 260° |
| 2026-05-04 20:02 | 54.00742 | 1.67375 | 38062 ft | 432 kts | 260° |
| 2026-05-04 20:03 | 53.99731 | 1.57307 | 38058 ft | 432 kts | 260° |
| 2026-05-04 20:03 | 53.98709 | 1.47227 | 38059 ft | 433 kts | 260° |
| 2026-05-04 20:04 | 53.97678 | 1.37146 | 38063 ft | 433 kts | 259° |
| 2026-05-04 20:04 | 53.96645 | 1.27130 | 38060 ft | 434 kts | 259° |
| 2026-05-04 20:05 | 53.95589 | 1.16972 | 38058 ft | 434 kts | 259° |
| 2026-05-04 20:05 | 53.94536 | 1.06937 | 38057 ft | 435 kts | 259° |
| 2026-05-04 20:06 | 53.93462 | 0.96774 | 38060 ft | 435 kts | 259° |
| 2026-05-04 20:06 | 53.92386 | 0.86674 | 38058 ft | 435 kts | 259° |
| 2026-05-04 20:07 | 53.91590 | 0.76566 | 38069 ft | 435 kts | 264° |
| 2026-05-04 20:07 | 53.91121 | 0.66257 | 38055 ft | 436 kts | 265° |
| 2026-05-04 20:08 | 53.90666 | 0.56078 | 38055 ft | 436 kts | 265° |
| 2026-05-04 20:08 | 53.90165 | 0.45835 | 38049 ft | 436 kts | 265° |
| 2026-05-04 20:09 | 53.89635 | 0.35597 | 38050 ft | 436 kts | 264° |
| 2026-05-04 20:09 | 53.89091 | 0.25357 | 38053 ft | 436 kts | 264° |
| 2026-05-04 20:10 | 53.88538 | 0.15128 | 38048 ft | 436 kts | 264° |
| 2026-05-04 20:10 | 53.87977 | 0.04896 | 38055 ft | 436 kts | 264° |
| 2026-05-04 20:11 | 53.87407 | -0.05323 | 38037 ft | 436 kts | 264° |
| 2026-05-04 20:11 | 53.86829 | -0.15551 | 38049 ft | 436 kts | 264° |
| 2026-05-04 20:12 | 53.86242 | -0.25785 | 38045 ft | 436 kts | 264° |
| 2026-05-04 20:12 | 53.85646 | -0.36013 | 38045 ft | 437 kts | 264° |
| 2026-05-04 20:13 | 53.85040 | -0.46260 | 38054 ft | 437 kts | 264° |
| 2026-05-04 20:13 | 53.84425 | -0.56506 | 38044 ft | 438 kts | 264° |
| 2026-05-04 20:14 | 53.83802 | -0.66741 | 38042 ft | 438 kts | 264° |
| 2026-05-04 20:14 | 53.83168 | -0.77002 | 38043 ft | 438 kts | 264° |
| 2026-05-04 20:15 | 53.82526 | -0.87258 | 38045 ft | 438 kts | 264° |
| 2026-05-04 20:15 | 53.81875 | -0.97517 | 38045 ft | 438 kts | 264° |
| 2026-05-04 20:16 | 53.81215 | -1.07765 | 38037 ft | 438 kts | 264° |
| 2026-05-04 20:16 | 53.80546 | -1.18015 | 38048 ft | 438 kts | 263° |
| 2026-05-04 20:17 | 53.79869 | -1.28253 | 38052 ft | 438 kts | 263° |
| 2026-05-04 20:17 | 53.79184 | -1.38489 | 38044 ft | 438 kts | 263° |
| 2026-05-04 20:18 | 53.78494 | -1.48653 | 38041 ft | 438 kts | 263° |
| 2026-05-04 20:18 | 53.77792 | -1.58873 | 38050 ft | 437 kts | 263° |
| 2026-05-04 20:19 | 53.77081 | -1.69088 | 38040 ft | 437 kts | 263° |
| 2026-05-04 20:19 | 53.76362 | -1.79290 | 38050 ft | 437 kts | 263° |
| 2026-05-04 20:20 | 53.75635 | -1.89481 | 38052 ft | 437 kts | 263° |
| 2026-05-04 20:20 | 53.74898 | -1.99675 | 38054 ft | 437 kts | 263° |
| 2026-05-04 20:21 | 53.74154 | -2.09855 | 38045 ft | 437 kts | 263° |
| 2026-05-04 20:21 | 53.73021 | -2.25134 | 38054 ft | 437 kts | 263° |
| 2026-05-04 20:22 | 53.72254 | -2.35318 | 38065 ft | 437 kts | 263° |
| 2026-05-04 20:22 | 53.71478 | -2.45511 | 38055 ft | 438 kts | 263° |
| 2026-05-04 20:23 | 53.70754 | -2.55741 | 38018 ft | 440 kts | 268° |
| 2026-05-04 20:23 | 53.70726 | -2.60934 | 37721 ft | 446 kts | 271° |
| 2026-05-04 20:23 | 53.70806 | -2.66184 | 37467 ft | 447 kts | 272° |
| 2026-05-04 20:24 | 53.70913 | -2.71416 | 37198 ft | 445 kts | 272° |
| 2026-05-04 20:24 | 53.71013 | -2.76625 | 36705 ft | 443 kts | 273° |
| 2026-05-04 20:24 | 53.71097 | -2.81815 | 36220 ft | 441 kts | 272° |
| 2026-05-04 20:24 | 53.71164 | -2.86994 | 35641 ft | 442 kts | 272° |
| 2026-05-04 20:25 | 53.71218 | -2.92182 | 35059 ft | 442 kts | 272° |
| 2026-05-04 20:25 | 53.71264 | -2.97382 | 34463 ft | 444 kts | 272° |
| 2026-05-04 20:25 | 53.71305 | -3.02595 | 33806 ft | 445 kts | 272° |
| 2026-05-04 20:25 | 53.71344 | -3.07826 | 33113 ft | 447 kts | 272° |
| 2026-05-04 20:26 | 53.71380 | -3.13072 | 32436 ft | 447 kts | 272° |
| 2026-05-04 20:26 | 53.71414 | -3.18323 | 31855 ft | 446 kts | 272° |
| 2026-05-04 20:26 | 53.71446 | -3.23541 | 31398 ft | 442 kts | 272° |
| 2026-05-04 20:26 | 53.71476 | -3.28703 | 30920 ft | 438 kts | 272° |
| 2026-05-04 20:27 | 53.71502 | -3.33825 | 30470 ft | 434 kts | 272° |
| 2026-05-04 20:27 | 53.71527 | -3.38896 | 29995 ft | 432 kts | 272° |
| 2026-05-04 20:27 | 53.71549 | -3.43967 | 29475 ft | 434 kts | 271° |
| 2026-05-04 20:27 | 53.71569 | -3.49053 | 28962 ft | 431 kts | 272° |
| 2026-05-04 20:28 | 53.71587 | -3.54087 | 28491 ft | 427 kts | 271° |
| 2026-05-04 20:28 | 53.71604 | -3.59072 | 28009 ft | 423 kts | 271° |
| 2026-05-04 20:28 | 53.71618 | -3.64006 | 27544 ft | 418 kts | 271° |
| 2026-05-04 20:28 | 53.71630 | -3.68895 | 27068 ft | 415 kts | 271° |
| 2026-05-04 20:29 | 53.71640 | -3.73745 | 26608 ft | 411 kts | 271° |
| 2026-05-04 20:29 | 53.71647 | -3.78553 | 26159 ft | 408 kts | 271° |
| 2026-05-04 20:29 | 53.71653 | -3.83317 | 25708 ft | 405 kts | 271° |
| 2026-05-04 20:29 | 53.71657 | -3.88057 | 25259 ft | 402 kts | 271° |
| 2026-05-04 20:30 | 53.71659 | -3.92760 | 24815 ft | 400 kts | 271° |
| 2026-05-04 20:30 | 53.71660 | -3.97378 | 24373 ft | 397 kts | 271° |
| 2026-05-04 20:30 | 53.71659 | -4.02030 | 23912 ft | 396 kts | 270° |
| 2026-05-04 20:30 | 53.71656 | -4.06667 | 23422 ft | 394 kts | 271° |
| 2026-05-04 20:31 | 53.71706 | -4.11280 | 22925 ft | 391 kts | 273° |
| 2026-05-04 20:31 | 53.71866 | -4.15846 | 22453 ft | 388 kts | 275° |
| 2026-05-04 20:31 | 53.72062 | -4.20373 | 22003 ft | 385 kts | 275° |
| 2026-05-04 20:31 | 53.72257 | -4.24864 | 21564 ft | 382 kts | 275° |
| 2026-05-04 20:32 | 53.72438 | -4.29317 | 21128 ft | 379 kts | 275° |
| 2026-05-04 20:32 | 53.72609 | -4.33740 | 20704 ft | 376 kts | 274° |
| 2026-05-04 20:32 | 53.72772 | -4.38125 | 20276 ft | 373 kts | 274° |
| 2026-05-04 20:32 | 53.72834 | -4.42500 | 19739 ft | 374 kts | 268° |
| 2026-05-04 20:33 | 53.72694 | -4.46877 | 19292 ft | 372 kts | 266° |
| 2026-05-04 20:33 | 53.72488 | -4.51217 | 18860 ft | 370 kts | 265° |
| 2026-05-04 20:33 | 53.72271 | -4.55530 | 18425 ft | 368 kts | 265° |
| 2026-05-04 20:33 | 53.72061 | -4.59825 | 17948 ft | 366 kts | 265° |
| 2026-05-04 20:34 | 53.71864 | -4.64088 | 17504 ft | 363 kts | 265° |
| 2026-05-04 20:34 | 53.71676 | -4.68311 | 17071 ft | 359 kts | 265° |
| 2026-05-04 20:34 | 53.71494 | -4.72496 | 16651 ft | 356 kts | 266° |
| 2026-05-04 20:34 | 53.71317 | -4.76639 | 16238 ft | 353 kts | 266° |
| 2026-05-04 20:35 | 53.71141 | -4.80751 | 15837 ft | 350 kts | 266° |
| 2026-05-04 20:35 | 53.70967 | -4.84823 | 15428 ft | 347 kts | 265° |
| 2026-05-04 20:35 | 53.70602 | -4.88797 | 15019 ft | 340 kts | 256° |
| 2026-05-04 20:35 | 53.69952 | -4.92604 | 14523 ft | 334 kts | 253° |
| 2026-05-04 20:36 | 53.69266 | -4.96332 | 13888 ft | 332 kts | 253° |
| 2026-05-04 20:36 | 53.68580 | -5.00042 | 13200 ft | 331 kts | 253° |
| 2026-05-04 20:36 | 53.67905 | -5.03741 | 12553 ft | 328 kts | 254° |
| 2026-05-04 20:36 | 53.67247 | -5.07391 | 11973 ft | 323 kts | 254° |
| 2026-05-04 20:37 | 53.66598 | -5.11025 | 11489 ft | 324 kts | 254° |
| 2026-05-04 20:37 | 53.65953 | -5.14657 | 11066 ft | 323 kts | 255° |
| 2026-05-04 20:37 | 53.65313 | -5.18269 | 10668 ft | 321 kts | 254° |
| 2026-05-04 20:37 | 53.64682 | -5.21832 | 10504 ft | 312 kts | 255° |
| 2026-05-04 20:38 | 53.64071 | -5.25274 | 10352 ft | 303 kts | 254° |
| 2026-05-04 20:38 | 53.63474 | -5.28631 | 10205 ft | 294 kts | 255° |
| 2026-05-04 20:38 | 53.62697 | -5.31758 | 10100 ft | 287 kts | 235° |
| 2026-05-04 20:38 | 53.61367 | -5.34216 | 9866 ft | 284 kts | 226° |
| 2026-05-04 20:39 | 53.59962 | -5.36545 | 9572 ft | 282 kts | 226° |
| 2026-05-04 20:39 | 53.58591 | -5.38839 | 9278 ft | 281 kts | 227° |
| 2026-05-04 20:39 | 53.57205 | -5.41194 | 8983 ft | 279 kts | 227° |
| 2026-05-04 20:39 | 53.55966 | -5.43665 | 8663 ft | 275 kts | 240° |
| 2026-05-04 20:40 | 53.55096 | -5.46461 | 8239 ft | 273 kts | 245° |
| 2026-05-04 20:40 | 53.54265 | -5.49328 | 7799 ft | 272 kts | 245° |
| 2026-05-04 20:40 | 53.53434 | -5.52170 | 7404 ft | 270 kts | 245° |
| 2026-05-04 20:40 | 53.52599 | -5.54975 | 7016 ft | 267 kts | 245° |
| 2026-05-04 20:41 | 53.51762 | -5.57746 | 6629 ft | 265 kts | 245° |
| 2026-05-04 20:41 | 53.50924 | -5.60496 | 6232 ft | 264 kts | 245° |
| 2026-05-04 20:41 | 53.50080 | -5.63243 | 5899 ft | 264 kts | 244° |
| 2026-05-04 20:41 | 53.49235 | -5.65981 | 5590 ft | 263 kts | 245° |
| 2026-05-04 20:42 | 53.48392 | -5.68700 | 5317 ft | 262 kts | 244° |
| 2026-05-04 20:42 | 53.47550 | -5.71408 | 5038 ft | 261 kts | 244° |
| 2026-05-04 20:42 | 53.46713 | -5.74095 | 4757 ft | 259 kts | 244° |
| 2026-05-04 20:42 | 53.45879 | -5.76771 | 4501 ft | 257 kts | 245° |
| 2026-05-04 20:43 | 53.45060 | -5.79390 | 4338 ft | 251 kts | 245° |
| 2026-05-04 20:43 | 53.44261 | -5.81944 | 4213 ft | 244 kts | 245° |
| 2026-05-04 20:43 | 53.43487 | -5.84420 | 4099 ft | 236 kts | 245° |
| 2026-05-04 20:43 | 53.42733 | -5.86825 | 3996 ft | 230 kts | 245° |
| 2026-05-04 20:44 | 53.41987 | -5.89199 | 3912 ft | 230 kts | 245° |
| 2026-05-04 20:44 | 53.41241 | -5.91573 | 3795 ft | 232 kts | 245° |
| 2026-05-04 20:44 | 53.40489 | -5.94001 | 3553 ft | 236 kts | 249° |
| 2026-05-04 20:44 | 53.40263 | -5.96630 | 3286 ft | 227 kts | 285° |
| 2026-05-04 20:45 | 53.40648 | -5.99151 | 3084 ft | 223 kts | 283° |
| 2026-05-04 20:45 | 53.40820 | -6.01707 | 2887 ft | 217 kts | 277° |
| 2026-05-04 20:45 | 53.40893 | -6.03347 | 2799 ft | 210 kts | 277° |
| 2026-05-04 20:45 | 53.41009 | -6.05749 | 2547 ft | 204 kts | 278° |
| 2026-05-04 20:46 | 53.41130 | -6.08087 | 2274 ft | 199 kts | 278° |
| 2026-05-04 20:46 | 53.41251 | -6.10378 | 1997 ft | 195 kts | 277° |
| 2026-05-04 20:46 | 53.41365 | -6.12573 | 1741 ft | 183 kts | 277° |
| 2026-05-04 20:46 | 53.41473 | -6.14620 | 1508 ft | 168 kts | 278° |
| 2026-05-04 20:47 | 53.41572 | -6.16503 | 1257 ft | 156 kts | 278° |
| 2026-05-04 20:47 | 53.41667 | -6.18276 | 1053 ft | 151 kts | 278° |
| 2026-05-04 20:47 | 53.41763 | -6.20039 | 839 ft | 153 kts | 274° |
| 2026-05-04 20:47 | 53.41856 | -6.21821 | 636 ft | 154 kts | 273° |
| 2026-05-04 20:48 | 53.41953 | -6.23609 | 434 ft | 154 kts | 272° |
| 2026-05-04 20:48 | 53.42046 | -6.25397 | 223 ft | 155 kts | 273° |
| 2026-05-04 20:48 | 53.42132 | -6.26996 | 214 ft | 110 kts | 275° |
| 2026-05-04 20:48 | 53.42170 | -6.27648 | 211 ft | 30 kts | 278° |
| 2026-05-04 20:49 | 53.42237 | -6.27957 | 215 ft | 23 kts | 300° |
| 2026-05-04 20:49 | 53.42292 | -6.28107 | 212 ft | 12 kts | 311° |
| 2026-05-04 20:49 | 53.42349 | -6.28115 | 217 ft | 6 kts | 38° |
| 2026-05-04 20:49 | 53.42363 | -6.28057 | 215 ft | 9 kts | 88° |
| 2026-05-04 20:50 | 53.42353 | -6.27878 | 215 ft | 21 kts | 95° |
| 2026-05-04 20:50 | 53.42338 | -6.27609 | 210 ft | 24 kts | 95° |
| 2026-05-04 20:50 | 53.42323 | -6.27332 | 214 ft | 23 kts | 95° |
| 2026-05-04 20:50 | 53.42309 | -6.27069 | 210 ft | 22 kts | 95° |
| 2026-05-04 20:51 | 53.42295 | -6.26813 | 210 ft | 22 kts | 95° |
| 2026-05-04 20:51 | 53.42281 | -6.26565 | 213 ft | 21 kts | 95° |
| 2026-05-04 20:51 | 53.42267 | -6.26324 | 210 ft | 20 kts | 95° |
| 2026-05-04 20:51 | 53.42301 | -6.26101 | 213 ft | 20 kts | 54° |
| 2026-05-04 20:52 | 53.42400 | -6.25925 | 213 ft | 23 kts | 46° |
| 2026-05-04 20:52 | 53.42520 | -6.25721 | 210 ft | 26 kts | 45° |
| 2026-05-04 20:52 | 53.42645 | -6.25506 | 210 ft | 25 kts | 46° |
| 2026-05-04 20:52 | 53.42755 | -6.25320 | 213 ft | 21 kts | 45° |
| 2026-05-04 20:53 | 53.42834 | -6.25189 | 210 ft | 9 kts | 29° |
| 2026-05-04 20:53 | 53.42893 | -6.25207 | 210 ft | 10 kts | 337° |
| 2026-05-04 20:53 | 53.42971 | -6.25264 | 213 ft | 15 kts | 336° |
| 2026-05-04 20:53 | 53.43080 | -6.25344 | 214 ft | 18 kts | 336° |
| 2026-05-04 20:54 | 53.43175 | -6.25398 | 218 ft | 11 kts | 8° |
| 2026-05-04 20:54 | 53.43228 | -6.25314 | 211 ft | 10 kts | 70° |
| 2026-05-04 20:54 | 53.43229 | -6.25223 | 219 ft | 6 kts | 95° |
| 2026-05-04 20:54 | 53.43225 | -6.25149 | 210 ft | 6 kts | 95° |
| 2026-05-04 20:55 | 53.43213 | -6.25083 | 216 ft | 6 kts | 147° |
| 2026-05-04 20:55 | 53.43165 | -6.25082 | 210 ft | 8 kts | 185° |
| 2026-05-04 20:55 | 53.43128 | -6.25088 | 214 ft | 1 kts | 185° |
| 2026-05-04 20:55 | 53.43127 | -6.25088 | 210 ft | 0 kts | 185° |